createdAt,value
2023-05-22T00:02:23.053Z,3.58
2023-05-22T00:04:51.766Z,3.60
2023-05-22T00:07:19.599Z,3.47
2023-05-22T00:09:48.693Z,3.58
2023-05-22T00:12:16.514Z,3.38
2023-05-22T00:14:44.350Z,4.18
2023-05-22T00:17:14.886Z,3.90
2023-05-22T00:19:43.097Z,3.55
2023-05-22T00:22:11.306Z,3.83
2023-05-22T00:24:39.093Z,3.42
2023-05-22T00:27:08.424Z,4.20
2023-05-22T00:29:36.373Z,3.45
2023-05-22T00:32:04.447Z,3.63
2023-05-22T00:34:32.406Z,3.78
2023-05-22T00:37:00.179Z,3.95
2023-05-22T00:39:27.924Z,4.15
2023-05-22T00:41:55.774Z,3.72
2023-05-22T00:44:24.879Z,3.85
2023-05-22T00:46:52.825Z,3.42
2023-05-22T00:49:21.214Z,3.72
2023-05-22T00:51:50.086Z,3.67
2023-05-22T00:54:18.217Z,3.58
2023-05-22T00:56:46.429Z,3.72
2023-05-22T00:59:14.426Z,3.70
2023-05-22T01:01:45.322Z,3.63
2023-05-22T01:04:15.558Z,3.88
2023-05-22T01:06:47.568Z,3.63
2023-05-22T01:09:15.902Z,3.72
2023-05-22T01:11:52.397Z,3.33
2023-05-22T01:14:28.866Z,3.78
2023-05-22T01:17:08.917Z,3.78
2023-05-22T01:20:01.617Z,3.83
2023-05-22T01:22:46.218Z,3.85
2023-05-22T01:25:30.453Z,3.75
2023-05-22T01:28:18.512Z,3.65
2023-05-22T01:30:57.844Z,3.83
2023-05-22T01:33:26.555Z,3.70
2023-05-22T01:35:58.214Z,3.40
2023-05-22T01:38:26.491Z,3.45
2023-05-22T01:40:55.744Z,4.30
2023-05-22T01:43:23.904Z,3.50
2023-05-22T01:45:53.045Z,3.45
2023-05-22T01:48:21.146Z,3.67
2023-05-22T01:50:54.900Z,3.42
2023-05-22T01:53:31.459Z,3.33
2023-05-22T01:56:05.254Z,3.55
2023-05-22T01:58:38.565Z,3.88
2023-05-22T02:01:09.910Z,4.10
2023-05-22T02:03:40.547Z,4.22
2023-05-22T02:06:11.684Z,4.18
2023-05-22T02:08:42.408Z,3.47
2023-05-22T02:11:12.283Z,3.60
2023-05-22T02:13:40.693Z,3.83
2023-05-22T02:16:12.202Z,3.60
2023-05-22T02:18:42.102Z,3.67
2023-05-22T02:21:09.930Z,3.88
2023-05-22T02:23:37.951Z,3.80
2023-05-22T02:26:06.390Z,3.42
2023-05-22T02:28:34.467Z,3.67
2023-05-22T02:31:03.420Z,3.60
2023-05-22T02:33:32.592Z,3.70
2023-05-22T02:36:00.338Z,3.50
2023-05-22T02:38:28.107Z,3.88
2023-05-22T02:40:55.882Z,3.05
2023-05-22T02:43:23.606Z,3.80
2023-05-22T02:45:51.481Z,3.42
2023-05-22T02:48:19.185Z,3.60
2023-05-22T02:50:48.813Z,3.55
2023-05-22T02:53:17.131Z,3.05
2023-05-22T02:55:45.966Z,3.33
2023-05-22T02:58:14.499Z,3.40
2023-05-22T03:00:43.287Z,4.15
2023-05-22T03:03:11.810Z,3.15
2023-05-22T03:05:40.146Z,3.60
2023-05-22T03:08:09.274Z,3.22
2023-05-22T03:10:37.270Z,3.72
2023-05-22T03:13:05.431Z,3.95
2023-05-22T03:15:33.223Z,3.88
2023-05-22T03:18:01.117Z,2.92
2023-05-22T03:20:28.956Z,3.53
2023-05-22T03:22:56.788Z,3.25
2023-05-22T03:25:26.021Z,3.53
2023-05-22T03:27:53.786Z,3.25
2023-05-22T03:30:21.812Z,3.28
2023-05-22T03:32:49.635Z,3.10
2023-05-22T03:35:19.895Z,3.50
2023-05-22T03:37:48.245Z,3.67
2023-05-22T03:40:16.525Z,2.90
2023-05-22T03:42:45.641Z,3.20
2023-05-22T03:45:13.504Z,3.17
2023-05-22T03:47:41.410Z,3.33
2023-05-22T03:50:10.204Z,3.25
2023-05-22T03:52:38.154Z,3.45
2023-05-22T03:55:07.084Z,3.10
2023-05-22T03:57:34.927Z,3.63
2023-05-22T04:00:06.781Z,3.28
2023-05-22T04:02:34.590Z,3.28
2023-05-22T04:05:02.425Z,3.35
2023-05-22T04:07:30.305Z,3.60
2023-05-22T04:09:58.085Z,3.20
2023-05-22T04:12:25.855Z,2.88
2023-05-22T04:14:53.870Z,3.13
2023-05-22T04:17:23.086Z,3.03
2023-05-22T04:19:51.223Z,2.88
2023-05-22T04:22:19.141Z,2.95
2023-05-22T04:24:49.387Z,3.28
2023-05-22T04:27:17.197Z,3.20
2023-05-22T04:29:46.794Z,3.20
2023-05-22T04:32:18.350Z,3.03
2023-05-22T04:34:49.269Z,3.03
2023-05-22T04:37:18.372Z,2.83
2023-05-22T04:39:46.444Z,2.90
2023-05-22T04:42:14.442Z,3.10
2023-05-22T04:44:43.806Z,3.15
2023-05-22T04:47:14.468Z,2.67
2023-05-22T04:49:43.552Z,2.95
2023-05-22T04:52:12.693Z,2.78
2023-05-22T04:54:41.411Z,2.95
2023-05-22T04:57:09.211Z,2.45
2023-05-22T04:59:39.120Z,3.10
2023-05-22T05:02:07.077Z,2.75
2023-05-22T05:04:35.078Z,3.22
2023-05-22T05:07:03.552Z,3.00
2023-05-22T05:09:32.902Z,2.95
2023-05-22T05:12:01.033Z,2.95
2023-05-22T05:14:28.831Z,2.88
2023-05-22T05:16:57.010Z,2.97
2023-05-22T05:19:25.201Z,2.83
2023-05-22T05:21:53.034Z,2.85
2023-05-22T05:24:20.871Z,3.55
2023-05-22T05:26:51.404Z,2.70
2023-05-22T05:29:19.198Z,3.53
2023-05-22T05:31:47.234Z,3.10
2023-05-22T05:34:15.352Z,2.58
2023-05-22T05:36:43.113Z,2.58
2023-05-22T05:39:10.976Z,2.65
2023-05-22T05:41:38.744Z,3.03
2023-05-22T05:44:07.846Z,2.65
2023-05-22T05:46:36.199Z,2.90
2023-05-22T05:49:10.113Z,2.63
2023-05-22T05:51:38.335Z,3.22
2023-05-22T05:54:06.402Z,2.67
2023-05-22T05:56:34.233Z,2.90
2023-05-22T05:59:02.264Z,2.72
2023-05-22T06:01:32.875Z,3.42
2023-05-22T06:04:03.153Z,2.67
2023-05-22T06:06:36.213Z,2.83
2023-05-22T06:09:05.498Z,2.80
2023-05-22T06:11:33.595Z,2.78
2023-05-22T06:14:03.131Z,2.90
2023-05-22T06:16:32.336Z,2.55
2023-05-22T06:19:01.090Z,2.33
2023-05-22T06:21:29.213Z,2.70
2023-05-22T06:23:57.390Z,2.95
2023-05-22T06:26:28.293Z,2.83
2023-05-22T06:28:56.352Z,2.63
2023-05-22T06:31:25.891Z,2.75
2023-05-22T06:33:55.369Z,2.42
2023-05-22T06:36:23.411Z,2.65
2023-05-22T06:38:51.946Z,2.58
2023-05-22T06:41:19.893Z,2.42
2023-05-22T06:43:47.635Z,2.55
2023-05-22T06:46:15.423Z,2.90
2023-05-22T06:48:43.536Z,2.63
2023-05-22T06:51:14.970Z,2.53
2023-05-22T06:53:43.048Z,3.00
2023-05-22T06:56:10.914Z,2.67
2023-05-22T06:58:39.989Z,2.85
2023-05-22T07:01:07.945Z,2.63
2023-05-22T07:03:35.755Z,2.72
2023-05-22T07:06:03.664Z,2.97
2023-05-22T07:08:35.086Z,2.67
2023-05-22T07:11:06.747Z,2.53
2023-05-22T07:13:34.623Z,3.13
2023-05-22T07:16:02.539Z,2.70
2023-05-22T07:18:31.451Z,2.55
2023-05-22T07:21:00.060Z,2.30
2023-05-22T07:23:27.907Z,2.85
2023-05-22T07:25:57.334Z,2.35
2023-05-22T07:28:25.082Z,2.80
2023-05-22T07:30:52.909Z,2.50
2023-05-22T07:33:20.625Z,2.67
2023-05-22T07:35:48.495Z,2.75
2023-05-22T07:38:16.513Z,2.72
2023-05-22T07:40:48.981Z,2.58
2023-05-22T07:43:18.058Z,2.45
2023-05-22T07:45:46.370Z,2.60
2023-05-22T07:48:14.454Z,2.40
2023-05-22T07:50:44.763Z,2.47
2023-05-22T07:53:12.805Z,2.60
2023-05-22T07:55:41.015Z,2.42
2023-05-22T07:58:10.893Z,2.80
2023-05-22T08:00:40.069Z,2.40
2023-05-22T08:03:08.056Z,2.45
2023-05-22T08:05:36.273Z,2.78
2023-05-22T08:08:04.773Z,2.35
2023-05-22T08:10:46.306Z,2.60
2023-05-22T08:13:16.818Z,2.45
2023-05-22T08:15:46.112Z,2.45
2023-05-22T08:18:13.977Z,2.75
2023-05-22T08:20:41.944Z,2.90
2023-05-22T08:23:09.894Z,2.53
2023-05-22T08:25:37.755Z,2.20
2023-05-22T08:28:06.360Z,2.40
2023-05-22T08:30:37.297Z,2.22
2023-05-22T08:33:06.923Z,2.85
2023-05-22T08:35:34.906Z,2.38
2023-05-22T08:38:02.908Z,2.35
2023-05-22T08:40:37.109Z,2.40
2023-05-22T08:43:06.321Z,3.03
2023-05-22T08:45:34.920Z,2.90
2023-05-22T08:48:07.071Z,2.50
2023-05-22T08:50:38.921Z,2.22
2023-05-22T08:53:09.144Z,2.13
2023-05-22T08:55:37.690Z,2.80
2023-05-22T08:58:06.301Z,2.28
2023-05-22T09:00:34.544Z,2.03
2023-05-22T09:03:02.603Z,2.60
2023-05-22T09:05:34.108Z,2.30
2023-05-22T09:08:16.074Z,2.28
2023-05-22T09:10:47.314Z,2.40
2023-05-22T09:13:26.423Z,3.30
2023-05-22T09:15:54.297Z,2.40
2023-05-22T09:18:22.499Z,2.40
2023-05-22T09:20:52.155Z,2.60
2023-05-22T09:23:21.985Z,2.40
2023-05-22T09:25:50.096Z,2.42
2023-05-22T09:28:17.905Z,2.30
2023-05-22T09:30:49.479Z,2.10
2023-05-22T09:33:17.612Z,2.15
2023-05-22T09:35:47.532Z,2.40
2023-05-22T09:38:16.669Z,2.35
2023-05-22T09:40:44.729Z,2.05
2023-05-22T09:43:13.658Z,2.20
2023-05-22T09:45:41.836Z,2.28
2023-05-22T09:48:10.819Z,2.20
2023-05-22T09:50:40.101Z,2.13
2023-05-22T09:53:10.716Z,2.40
2023-05-22T09:55:40.473Z,2.05
2023-05-22T09:58:09.198Z,2.58
2023-05-22T10:00:37.967Z,2.40
2023-05-22T10:03:12.118Z,2.20
2023-05-22T10:05:45.064Z,2.25
2023-05-22T10:08:18.849Z,2.13
2023-05-22T10:10:52.834Z,2.13
2023-05-22T10:13:21.430Z,1.85
2023-05-22T10:15:49.802Z,2.13
2023-05-22T10:18:18.323Z,2.25
2023-05-22T10:20:47.754Z,1.92
2023-05-22T10:23:16.632Z,1.95
2023-05-22T10:25:45.134Z,2.10
2023-05-22T10:28:21.410Z,2.10
2023-05-22T10:30:55.054Z,1.98
2023-05-22T10:33:25.968Z,2.30
2023-05-22T10:35:57.397Z,2.17
2023-05-22T10:38:51.623Z,2.33
2023-05-22T10:41:19.727Z,2.25
2023-05-22T10:43:52.110Z,2.30
2023-05-22T10:46:20.273Z,2.53
2023-05-22T10:48:49.963Z,2.33
2023-05-22T10:51:21.870Z,3.00
2023-05-22T10:53:54.220Z,2.00
2023-05-22T10:56:24.471Z,2.38
2023-05-22T10:59:04.904Z,2.38
2023-05-22T11:01:35.129Z,2.40
2023-05-22T11:04:12.273Z,2.40
2023-05-22T11:06:42.219Z,2.22
2023-05-22T11:09:22.692Z,2.67
2023-05-22T11:12:16.205Z,2.00
2023-05-22T11:14:50.225Z,2.42
2023-05-22T11:17:19.705Z,2.35
2023-05-22T11:19:58.003Z,1.70
2023-05-22T11:22:31.856Z,2.08
2023-05-22T11:25:00.541Z,2.17
2023-05-22T11:27:28.543Z,2.05
2023-05-22T11:29:59.161Z,2.10
2023-05-22T11:32:28.486Z,1.98
2023-05-22T11:34:58.145Z,2.03
2023-05-22T11:37:25.970Z,2.10
2023-05-22T11:39:57.677Z,2.20
2023-05-22T11:42:26.042Z,2.10
2023-05-22T11:44:53.779Z,2.13
2023-05-22T11:47:23.021Z,2.13
2023-05-22T11:49:52.751Z,2.67
2023-05-22T11:52:20.901Z,2.20
2023-05-22T11:54:49.219Z,2.50
2023-05-22T11:57:17.236Z,2.58
2023-05-22T11:59:46.292Z,2.22
2023-05-22T12:02:14.681Z,1.88
2023-05-22T12:04:43.804Z,2.25
2023-05-22T12:07:11.982Z,2.53
2023-05-22T12:09:40.744Z,2.13
2023-05-22T12:12:11.532Z,2.20
2023-05-22T12:14:39.792Z,2.50
2023-05-22T12:17:07.770Z,2.28
2023-05-22T12:19:35.637Z,2.05
2023-05-22T12:22:05.946Z,2.55
2023-05-22T12:24:39.401Z,2.15
2023-05-22T12:27:09.659Z,1.88
2023-05-22T12:29:38.114Z,2.35
2023-05-22T12:32:08.628Z,2.05
2023-05-22T12:34:37.492Z,2.53
2023-05-22T12:37:18.243Z,2.40
2023-05-22T12:39:54.967Z,2.05
2023-05-22T12:42:22.953Z,2.45
2023-05-22T12:44:53.617Z,2.30
2023-05-22T12:47:21.850Z,2.22
2023-05-22T12:49:49.611Z,2.05
2023-05-22T12:52:19.272Z,2.05
2023-05-22T12:54:47.637Z,2.00
2023-05-22T12:57:16.815Z,2.17
2023-05-22T12:59:44.750Z,2.15
2023-05-22T13:02:12.624Z,2.33
2023-05-22T13:04:40.448Z,2.47
2023-05-22T13:07:08.283Z,2.38
2023-05-22T13:09:37.441Z,1.80
2023-05-22T13:12:05.805Z,2.17
2023-05-22T13:14:33.620Z,2.30
2023-05-22T13:17:01.379Z,2.22
2023-05-22T13:19:29.269Z,1.83
2023-05-22T13:21:57.084Z,2.28
2023-05-22T13:24:25.136Z,2.28
2023-05-22T13:27:12.609Z,1.92
2023-05-22T13:29:40.521Z,2.40
2023-05-22T13:32:08.375Z,2.47
2023-05-22T13:34:36.245Z,2.03
2023-05-22T13:37:04.234Z,2.40
2023-05-22T13:39:32.293Z,2.28
2023-05-22T13:42:00.721Z,2.08
2023-05-22T13:44:30.019Z,2.30
2023-05-22T13:46:58.083Z,2.38
2023-05-22T13:49:26.558Z,2.20
2023-05-22T13:51:54.314Z,2.35
2023-05-22T13:54:22.147Z,2.30
2023-05-22T13:56:50.036Z,1.95
2023-05-22T13:59:17.938Z,2.50
2023-05-22T14:01:47.152Z,3.17
2023-05-22T14:04:15.079Z,2.38
2023-05-22T14:06:44.098Z,2.13
2023-05-22T14:09:12.126Z,2.30
2023-05-22T14:11:40.224Z,2.15
2023-05-22T14:14:08.229Z,2.22
2023-05-22T14:16:36.168Z,2.33
2023-05-22T14:19:05.461Z,1.88
2023-05-22T14:21:33.506Z,2.28
2023-05-22T14:24:02.480Z,2.10
2023-05-22T14:26:30.400Z,2.20
2023-05-22T14:28:58.441Z,2.10
2023-05-22T14:31:29.761Z,2.35
2023-05-22T14:33:57.676Z,2.33
2023-05-22T14:36:26.826Z,2.30
2023-05-22T14:38:56.994Z,2.22
2023-05-22T14:41:24.787Z,1.83
2023-05-22T14:43:52.596Z,2.17
2023-05-22T14:46:20.446Z,2.15
2023-05-22T14:48:48.231Z,2.35
2023-05-22T14:51:16.164Z,2.67
2023-05-22T14:53:45.921Z,2.40
2023-05-22T14:56:13.672Z,2.10
2023-05-22T14:58:41.514Z,2.53
2023-05-22T15:01:09.498Z,2.15
2023-05-22T15:03:37.269Z,2.42
2023-05-22T15:06:05.998Z,2.83
2023-05-22T15:08:33.748Z,2.15
2023-05-22T15:11:03.109Z,2.50
2023-05-22T15:13:30.905Z,2.50
2023-05-22T15:15:59.196Z,2.22
2023-05-22T15:18:27.719Z,2.22
2023-05-22T15:20:55.673Z,2.50
2023-05-22T15:23:25.316Z,2.67
2023-05-22T15:25:54.092Z,3.15
2023-05-22T15:28:23.268Z,2.60
2023-05-22T15:30:51.298Z,2.97
2023-05-22T15:33:19.334Z,2.88
2023-05-22T15:35:47.948Z,2.53
2023-05-22T15:38:16.774Z,2.63
2023-05-22T15:40:45.166Z,3.17
2023-05-22T15:43:13.014Z,2.90
2023-05-22T15:45:43.394Z,2.95
2023-05-22T15:48:12.716Z,3.55
2023-05-22T15:50:40.704Z,3.17
2023-05-22T15:53:08.479Z,3.33
2023-05-22T15:55:36.745Z,3.25
2023-05-22T15:58:06.081Z,3.10
2023-05-22T16:00:38.516Z,3.00
2023-05-22T16:03:10.000Z,2.75
2023-05-22T16:05:39.839Z,2.95
2023-05-22T16:08:10.005Z,2.80
2023-05-22T16:10:41.344Z,3.05
2023-05-22T16:13:10.500Z,2.53
2023-05-22T16:15:39.815Z,3.22
2023-05-22T16:18:11.415Z,3.10
2023-05-22T16:20:39.291Z,3.72
2023-05-22T16:23:07.119Z,2.70
2023-05-22T16:25:35.419Z,2.67
2023-05-22T16:28:04.174Z,3.03
2023-05-22T16:30:32.147Z,2.75
2023-05-22T16:33:00.466Z,2.88
2023-05-22T16:35:30.408Z,2.80
2023-05-22T16:37:58.402Z,2.72
2023-05-22T16:40:29.354Z,3.88
2023-05-22T16:42:57.177Z,3.75
2023-05-22T16:45:25.471Z,3.20
2023-05-22T16:47:55.954Z,3.38
2023-05-22T16:50:24.022Z,3.88
2023-05-22T16:52:53.217Z,3.38
2023-05-22T16:55:21.261Z,3.47
2023-05-22T16:57:49.206Z,3.53
2023-05-22T17:00:17.771Z,3.30
2023-05-22T17:02:46.253Z,3.42
2023-05-22T17:05:14.099Z,3.40
2023-05-22T17:07:41.988Z,3.42
2023-05-22T17:10:12.531Z,3.75
2023-05-22T17:12:40.297Z,4.13
2023-05-22T17:15:09.382Z,3.75
2023-05-22T17:17:37.243Z,4.20
2023-05-22T17:20:07.209Z,3.80
2023-05-22T17:22:36.219Z,3.75
2023-05-22T17:25:06.061Z,4.00
2023-05-22T17:27:36.649Z,3.35
2023-05-22T17:30:05.962Z,3.28
2023-05-22T17:32:34.327Z,3.20
2023-05-22T17:35:04.872Z,3.30
2023-05-22T17:37:32.702Z,3.55
2023-05-22T17:40:00.531Z,3.60
2023-05-22T17:42:28.358Z,3.15
2023-05-22T17:44:57.420Z,3.08
2023-05-22T17:47:25.155Z,3.08
2023-05-22T17:49:52.896Z,3.40
2023-05-22T17:52:20.692Z,2.72
2023-05-22T17:54:49.873Z,3.13
2023-05-22T17:57:17.628Z,3.63
2023-05-22T17:59:45.590Z,3.10
2023-05-22T18:02:14.750Z,3.28
2023-05-22T18:04:43.925Z,3.15
2023-05-22T18:07:11.727Z,3.47
2023-05-22T18:09:39.735Z,3.45
2023-05-22T18:12:12.940Z,3.30
2023-05-22T18:14:45.906Z,3.17
2023-05-22T18:17:15.026Z,3.33
2023-05-22T18:19:42.917Z,2.65
2023-05-22T18:22:10.625Z,3.17
2023-05-22T18:24:38.401Z,2.67
2023-05-22T18:27:06.504Z,3.08
2023-05-22T18:29:34.277Z,3.33
2023-05-22T18:32:02.217Z,3.47
2023-05-22T18:34:32.202Z,3.03
2023-05-22T18:36:59.945Z,3.50
2023-05-22T18:39:27.721Z,3.28
2023-05-22T18:41:55.447Z,3.50
2023-05-22T18:44:23.504Z,2.88
2023-05-22T18:46:51.300Z,3.00
2023-05-22T18:49:19.090Z,3.58
2023-05-22T18:51:48.186Z,3.35
2023-05-22T18:54:16.062Z,3.60
2023-05-22T18:56:43.843Z,3.03
2023-05-22T18:59:11.571Z,2.85
2023-05-22T19:01:39.434Z,3.30
2023-05-22T19:04:07.766Z,3.17
2023-05-22T19:06:35.829Z,3.40
2023-05-22T19:09:05.240Z,2.65
2023-05-22T19:11:33.482Z,3.45
2023-05-22T19:14:01.345Z,3.00
2023-05-22T19:16:29.337Z,3.50
2023-05-22T19:18:57.145Z,2.92
2023-05-22T19:21:26.299Z,3.15
2023-05-22T19:23:54.050Z,3.45
2023-05-22T19:26:23.076Z,3.20
2023-05-22T19:28:50.857Z,3.65
2023-05-22T19:31:18.674Z,3.58
2023-05-22T19:33:46.929Z,3.45
2023-05-22T19:36:14.754Z,3.50
2023-05-22T19:38:42.780Z,3.50
2023-05-22T19:41:10.590Z,3.90
2023-05-22T19:43:39.765Z,3.42
2023-05-22T19:46:08.955Z,3.45
2023-05-22T19:48:36.909Z,3.83
2023-05-22T19:51:05.161Z,3.38
2023-05-22T19:53:34.075Z,3.97
2023-05-22T19:56:02.898Z,3.63
2023-05-22T19:58:33.174Z,4.00
2023-05-22T20:01:02.269Z,3.75
2023-05-22T20:03:30.577Z,3.70
2023-05-22T20:05:58.931Z,4.30
2023-05-22T20:08:26.833Z,3.60
2023-05-22T20:10:54.611Z,4.10
2023-05-22T20:13:22.391Z,3.92
2023-05-22T20:15:51.266Z,3.10
2023-05-22T20:18:20.797Z,3.60
2023-05-22T20:20:48.531Z,3.55
2023-05-22T20:23:16.407Z,3.60
2023-05-22T20:25:44.248Z,3.55
2023-05-22T20:28:12.029Z,4.05
2023-05-22T20:30:39.984Z,3.50
2023-05-22T20:33:11.847Z,4.15
2023-05-22T20:35:42.234Z,4.55
2023-05-22T20:38:14.292Z,4.03
2023-05-22T20:40:46.392Z,3.83
2023-05-22T20:43:14.882Z,3.97
2023-05-22T20:45:45.684Z,3.55
2023-05-22T20:48:14.105Z,4.35
2023-05-22T20:50:43.440Z,3.75
2023-05-22T20:53:12.338Z,4.28
2023-05-22T20:55:40.602Z,4.18
2023-05-22T20:58:09.204Z,3.92
2023-05-22T21:00:36.954Z,3.33
2023-05-22T21:03:04.868Z,3.17
2023-05-22T21:05:32.675Z,3.20
2023-05-22T21:08:01.767Z,3.38
2023-05-22T21:10:29.542Z,3.13
2023-05-22T21:12:57.329Z,3.17
2023-05-22T21:15:25.182Z,3.80
2023-05-22T21:17:52.947Z,3.28
2023-05-22T21:20:20.691Z,3.20
2023-05-22T21:22:48.654Z,3.03
2023-05-22T21:25:17.737Z,3.33
2023-05-22T21:27:46.606Z,3.03
2023-05-22T21:30:16.068Z,3.20
2023-05-22T21:32:44.423Z,3.50
2023-05-22T21:35:12.260Z,3.75
2023-05-22T21:37:40.614Z,3.00
2023-05-22T21:40:09.755Z,3.20
2023-05-22T21:42:46.533Z,3.00
2023-05-22T21:45:15.282Z,3.72
2023-05-22T21:47:43.149Z,3.40
2023-05-22T21:50:11.687Z,3.22
2023-05-22T21:52:39.419Z,4.00
2023-05-22T21:55:09.103Z,4.25
2023-05-22T21:57:39.672Z,3.67
2023-05-22T22:00:08.739Z,3.28
2023-05-22T22:02:36.594Z,3.17
2023-05-22T22:05:04.669Z,3.60
2023-05-22T22:07:32.385Z,3.40
2023-05-22T22:10:00.531Z,3.83
2023-05-22T22:12:28.600Z,3.88
2023-05-22T22:14:58.262Z,3.92
2023-05-22T22:17:26.382Z,4.28
2023-05-22T22:19:56.837Z,4.20
2023-05-22T22:22:26.183Z,4.50
2023-05-22T22:24:55.442Z,3.95
2023-05-22T22:27:23.400Z,4.47
2023-05-22T22:29:51.246Z,4.00
2023-05-22T22:32:20.775Z,3.50
2023-05-22T22:34:53.636Z,4.25
2023-05-22T22:37:22.127Z,3.58
2023-05-22T22:39:49.876Z,4.10
2023-05-22T22:42:17.790Z,3.97
2023-05-22T22:44:45.727Z,4.20
2023-05-22T22:47:13.508Z,3.97
2023-05-22T22:49:42.584Z,3.75
2023-05-22T22:52:10.688Z,3.83
2023-05-22T22:54:38.711Z,3.53
2023-05-22T22:57:06.946Z,4.30
2023-05-22T22:59:35.570Z,3.40
2023-05-22T23:02:03.301Z,3.92
2023-05-22T23:04:31.568Z,4.03
2023-05-22T23:07:00.789Z,4.32
2023-05-22T23:09:28.700Z,4.57
2023-05-22T23:11:56.526Z,3.97
2023-05-22T23:14:24.703Z,4.22
2023-05-22T23:16:52.551Z,3.45
2023-05-22T23:19:20.292Z,4.05
2023-05-22T23:21:48.196Z,4.15
2023-05-22T23:24:17.302Z,3.85
2023-05-22T23:26:45.101Z,3.80
2023-05-22T23:29:13.216Z,4.00
2023-05-22T23:31:41.020Z,3.40
2023-05-22T23:34:09.046Z,5.05
2023-05-22T23:36:37.267Z,4.10
2023-05-22T23:39:05.192Z,4.35
2023-05-22T23:41:35.411Z,4.88
2023-05-22T23:44:03.451Z,4.57
2023-05-22T23:46:31.238Z,4.70
2023-05-22T23:48:59.341Z,4.57
2023-05-22T23:51:27.139Z,4.10
2023-05-22T23:53:54.876Z,4.65
2023-05-22T23:56:22.709Z,4.75
2023-05-22T23:58:51.811Z,4.72
